Time;durP1;ratioP1;P1;durP2;ratioP2;P2;SDS_P1;SDS_P2;PMS_P1;PMS_P2;Temp;Humidity;BMP_temperature;BMP_pressure;BME280_temperature;BME280_humidity;BME280_pressure;Samples;Min_cycle;Max_cycle;Signal;HPM_P1;HPM_P2
2021/10/10 00:00:11;;;;;;;4.13;3.45;;;12.70;1.00;;;;;;4959715;28;20070;-70
2021/10/10 00:02:36;;;;;;;3.40;2.85;;;12.70;1.00;;;;;;4977129;28;20046;-70
2021/10/10 00:05:03;;;;;;;4.22;2.80;;;12.70;1.00;;;;;;4976962;28;20525;-70
2021/10/10 00:07:29;;;;;;;3.42;2.97;;;12.60;1.00;;;;;;4977272;28;20046;-70
2021/10/10 00:09:54;;;;;;;7.00;3.38;;;12.60;1.00;;;;;;4977142;28;20053;-70
2021/10/10 00:12:20;;;;;;;5.18;2.97;;;12.60;1.00;;;;;;4976865;28;20046;-70
2021/10/10 00:14:46;;;;;;;3.80;3.20;;;12.60;1.00;;;;;;4977802;28;20378;-70
2021/10/10 00:17:12;;;;;;;4.95;3.40;;;12.60;1.00;;;;;;4976914;28;20516;-70
2021/10/10 00:19:38;;;;;;;3.90;3.38;;;12.60;1.00;;;;;;4976576;28;20062;-70
2021/10/10 00:22:03;;;;;;;4.07;3.17;;;12.60;1.00;;;;;;4976620;28;20046;-70
2021/10/10 00:24:29;;;;;;;3.50;3.20;;;12.60;1.00;;;;;;4976879;28;20038;-70
2021/10/10 00:26:56;;;;;;;4.13;2.88;;;12.60;1.00;;;;;;4976820;28;20066;-70
2021/10/10 00:29:24;;;;;;;3.50;3.08;;;12.60;1.00;;;;;;4977079;28;20050;-70
2021/10/10 00:31:50;;;;;;;4.38;3.17;;;12.60;1.00;;;;;;4959448;28;20070;-70
2021/10/10 00:34:16;;;;;;;4.00;3.47;;;12.60;1.00;;;;;;4976393;28;20073;-70
2021/10/10 00:36:47;;;;;;;3.40;3.10;;;12.60;1.00;;;;;;4959281;28;20035;-70
2021/10/10 00:39:16;;;;;;;3.58;3.28;;;12.60;1.00;;;;;;4976467;28;20073;-70
2021/10/10 00:41:41;;;;;;;4.05;3.63;;;12.60;1.00;;;;;;4976561;28;20516;-70
2021/10/10 00:44:11;;;;;;;7.05;3.80;;;12.60;1.00;;;;;;4974607;28;20054;-70
2021/10/10 00:46:40;;;;;;;3.85;3.40;;;12.70;1.00;;;;;;4976295;28;20039;-70
2021/10/10 00:49:11;;;;;;;4.28;3.40;;;12.70;1.00;;;;;;4959387;28;20050;-70
2021/10/10 00:51:47;;;;;;;4.80;3.95;;;12.70;1.00;;;;;;4976574;28;20494;-70
2021/10/10 00:54:17;;;;;;;4.18;3.30;;;12.70;1.00;;;;;;4943065;28;20514;-70
2021/10/10 00:56:46;;;;;;;5.17;4.07;;;12.70;1.00;;;;;;4976378;28;20034;-70
2021/10/10 00:59:21;;;;;;;5.10;4.00;;;12.70;1.00;;;;;;4975730;28;20408;-70
2021/10/10 01:01:50;;;;;;;3.72;3.33;;;12.70;1.00;;;;;;4975907;28;20445;-70
2021/10/10 01:04:16;;;;;;;3.85;3.47;;;12.70;1.00;;;;;;4958975;28;20498;-70
2021/10/10 01:06:45;;;;;;;4.20;3.33;;;12.70;1.00;;;;;;4959056;28;20046;-70
2021/10/10 01:09:16;;;;;;;4.90;3.08;;;12.80;1.00;;;;;;4958418;28;20045;-70
2021/10/10 01:11:45;;;;;;;4.85;3.13;;;12.70;1.00;;;;;;4975513;28;20073;-70
2021/10/10 01:14:12;;;;;;;3.35;3.00;;;12.70;1.00;;;;;;4975989;28;20058;-70
2021/10/10 01:16:38;;;;;;;3.85;3.42;;;12.80;1.00;;;;;;4975801;28;20047;-70
2021/10/10 01:19:06;;;;;;;6.05;3.42;;;12.80;1.00;;;;;;4976028;28;20510;-70
2021/10/10 01:21:32;;;;;;;5.15;2.90;;;12.80;1.00;;;;;;4976037;28;20058;-70
2021/10/10 01:23:58;;;;;;;4.70;3.35;;;12.80;1.00;;;;;;4975900;28;20553;-70
2021/10/10 01:26:24;;;;;;;4.88;3.05;;;12.80;1.00;;;;;;4975565;28;20050;-70
2021/10/10 01:28:50;;;;;;;3.10;2.80;;;12.80;1.00;;;;;;4976140;28;20093;-70
2021/10/10 01:31:16;;;;;;;3.17;2.88;;;12.80;1.00;;;;;;4975775;28;20035;-70
2021/10/10 01:33:46;;;;;;;3.30;2.85;;;12.90;1.00;;;;;;4975503;28;20054;-70
2021/10/10 01:36:13;;;;;;;3.67;2.90;;;12.90;1.00;;;;;;4975439;28;20070;-70
2021/10/10 01:38:40;;;;;;;3.63;2.88;;;12.90;1.00;;;;;;4975200;28;20046;-70
2021/10/10 01:41:08;;;;;;;4.78;3.50;;;12.80;1.00;;;;;;4958315;28;20070;-70
2021/10/10 01:43:35;;;;;;;3.55;3.13;;;12.90;1.00;;;;;;4975733;28;20149;-70
2021/10/10 01:46:01;;;;;;;3.38;3.00;;;12.90;1.00;;;;;;4975494;28;20073;-70
2021/10/10 01:48:27;;;;;;;4.15;3.75;;;13.00;1.00;;;;;;4975926;28;20039;-70
2021/10/10 01:50:56;;;;;;;5.10;3.20;;;13.00;1.00;;;;;;4975763;28;20042;-70
2021/10/10 01:53:22;;;;;;;4.10;3.20;;;13.00;1.00;;;;;;4975504;28;20045;-70
2021/10/10 01:55:49;;;;;;;4.07;3.30;;;13.00;1.00;;;;;;4975848;28;20486;-70
2021/10/10 01:58:14;;;;;;;5.82;3.30;;;13.10;1.00;;;;;;4975073;28;20058;-70
2021/10/10 02:00:40;;;;;;;5.32;3.35;;;13.10;1.00;;;;;;4976118;28;20387;-70
2021/10/10 02:03:06;;;;;;;5.00;2.80;;;13.20;1.00;;;;;;4975806;28;20043;-70
2021/10/10 02:05:32;;;;;;;4.72;2.90;;;13.30;1.00;;;;;;4974476;28;20038;-70
2021/10/10 02:07:58;;;;;;;3.47;2.80;;;13.20;1.00;;;;;;4975811;28;20081;-70
2021/10/10 02:10:24;;;;;;;2.97;2.50;;;13.20;1.00;;;;;;4958361;28;20043;-70
2021/10/10 02:12:50;;;;;;;4.15;2.60;;;13.20;1.00;;;;;;4975970;28;20070;-70
2021/10/10 02:15:16;;;;;;;5.25;3.40;;;13.20;1.00;;;;;;4975792;28;20039;-70
2021/10/10 02:17:43;;;;;;;3.67;3.10;;;13.20;1.00;;;;;;4975560;28;20074;-70
2021/10/10 02:20:10;;;;;;;3.03;2.80;;;13.20;1.00;;;;;;4975889;28;20041;-70
2021/10/10 02:22:41;;;;;;;3.38;2.53;;;13.10;1.00;;;;;;4976395;28;20046;-70
2021/10/10 02:25:08;;;;;;;3.20;2.72;;;13.10;1.00;;;;;;4962587;28;20155;-70
2021/10/10 02:27:34;;;;;;;3.20;2.63;;;13.10;1.00;;;;;;4961781;28;20129;-70
2021/10/10 02:30:00;;;;;;;3.47;2.65;;;13.10;1.00;;;;;;4979280;28;20525;-70
2021/10/10 02:32:26;;;;;;;4.38;3.17;;;13.10;1.00;;;;;;4961584;28;20390;-70
2021/10/10 02:34:52;;;;;;;3.33;2.88;;;13.20;1.00;;;;;;4979172;28;20109;-70
2021/10/10 02:37:20;;;;;;;3.70;3.13;;;13.20;1.00;;;;;;4979266;28;20377;-70
2021/10/10 02:39:51;;;;;;;4.60;2.95;;;13.20;1.00;;;;;;4979573;28;20101;-70
2021/10/10 02:42:20;;;;;;;6.18;3.42;;;13.20;1.00;;;;;;4978580;28;20121;-70
2021/10/10 02:44:46;;;;;;;3.28;2.92;;;13.20;1.00;;;;;;4978314;28;20026;-70
2021/10/10 02:47:12;;;;;;;4.75;3.42;;;13.30;1.00;;;;;;4961375;28;20046;-70
2021/10/10 02:49:37;;;;;;;4.20;3.20;;;13.30;1.00;;;;;;4979438;28;20043;-70
2021/10/10 02:52:06;;;;;;;4.65;3.35;;;13.30;1.00;;;;;;4978835;28;20049;-70
2021/10/10 02:54:32;;;;;;;6.10;3.35;;;13.20;1.00;;;;;;4978522;28;20158;-70
2021/10/10 02:56:58;;;;;;;4.30;3.40;;;13.30;1.00;;;;;;4978778;28;20070;-70
2021/10/10 02:59:26;;;;;;;6.40;3.15;;;13.30;1.00;;;;;;4978972;28;20058;-70
2021/10/10 03:01:52;;;;;;;4.40;2.95;;;13.30;1.00;;;;;;4961054;28;20054;-70
2021/10/10 03:04:18;;;;;;;4.00;3.45;;;13.30;1.00;;;;;;4977302;28;20038;-70
2021/10/10 03:06:44;;;;;;;4.40;3.60;;;13.30;1.00;;;;;;4978574;28;20050;-70
2021/10/10 03:09:14;;;;;;;4.40;3.42;;;13.20;1.00;;;;;;4979138;28;20487;-70
2021/10/10 03:11:42;;;;;;;6.90;3.38;;;13.30;1.00;;;;;;4960857;28;20038;-70
2021/10/10 03:14:20;;;;;;;3.47;3.08;;;13.30;1.00;;;;;;4960907;28;20130;-70
2021/10/10 03:16:46;;;;;;;4.15;2.90;;;13.30;1.00;;;;;;4978449;28;20121;-70
2021/10/10 03:19:15;;;;;;;4.82;3.13;;;13.20;1.00;;;;;;4978922;28;20130;-70
2021/10/10 03:21:40;;;;;;;3.20;2.90;;;13.20;1.00;;;;;;4978266;28;20113;-70
2021/10/10 03:24:09;;;;;;;3.78;2.90;;;13.30;1.00;;;;;;4977990;28;20034;-70
2021/10/10 03:26:35;;;;;;;4.88;3.22;;;13.20;1.00;;;;;;4960785;28;20042;-70
2021/10/10 03:29:01;;;;;;;4.32;2.95;;;13.20;1.00;;;;;;4978531;28;20081;-70
2021/10/10 03:31:30;;;;;;;4.35;3.17;;;13.20;1.00;;;;;;4978277;28;20469;-70
2021/10/10 03:33:56;;;;;;;3.95;2.72;;;13.20;1.00;;;;;;4976327;28;20074;-70
2021/10/10 03:36:22;;;;;;;4.13;3.33;;;13.20;1.00;;;;;;4978083;28;20449;-70
2021/10/10 03:38:48;;;;;;;5.82;3.17;;;13.10;1.00;;;;;;4978580;28;20414;-70
2021/10/10 03:41:17;;;;;;;3.67;2.95;;;13.10;1.00;;;;;;4977986;28;20057;-70
2021/10/10 03:43:46;;;;;;;4.10;3.05;;;13.10;1.00;;;;;;4977777;28;20054;-70
2021/10/10 03:46:12;;;;;;;5.70;2.90;;;13.10;1.00;;;;;;4977487;28;20042;-70
2021/10/10 03:48:38;;;;;;;5.65;3.08;;;13.00;1.00;;;;;;4976941;28;20057;-70
2021/10/10 03:51:06;;;;;;;4.00;3.03;;;13.00;1.00;;;;;;4977630;28;20418;-70
2021/10/10 03:54:37;;;;;;;3.78;2.80;;;13.00;1.00;;;;;;4977543;28;20039;-70
2021/10/10 03:56:21;;;;;;;6.60;2.90;;;13.00;1.00;;;;;;4969111;28;20494;-70
2021/10/10 03:58:47;;;;;;;8.30;3.22;;;13.00;1.00;;;;;;4960115;28;20073;-70
2021/10/10 04:01:13;;;;;;;4.00;3.00;;;12.90;1.00;;;;;;4977195;28;20599;-70
2021/10/10 04:03:39;;;;;;;3.70;3.15;;;12.90;1.00;;;;;;4960137;28;20078;-70
2021/10/10 04:06:04;;;;;;;4.90;3.20;;;12.90;1.00;;;;;;4959758;28;20104;-70
2021/10/10 04:08:30;;;;;;;5.63;3.15;;;12.90;1.00;;;;;;4977321;28;20049;-70
2021/10/10 04:10:56;;;;;;;4.50;2.67;;;12.90;1.00;;;;;;4977080;28;20031;-70
2021/10/10 04:13:22;;;;;;;3.78;2.83;;;12.80;1.00;;;;;;4976884;28;20437;-70
2021/10/10 04:15:48;;;;;;;6.47;3.67;;;12.80;1.00;;;;;;4959491;28;20086;-70
2021/10/10 04:18:14;;;;;;;5.38;3.55;;;12.90;1.00;;;;;;4977235;28;20050;-70
2021/10/10 04:20:40;;;;;;;5.68;3.58;;;12.90;1.00;;;;;;4960282;28;20479;-70
2021/10/10 04:23:06;;;;;;;3.92;3.25;;;12.90;1.00;;;;;;4943595;28;20047;-70
2021/10/10 04:25:32;;;;;;;4.53;3.22;;;12.90;1.00;;;;;;4959458;28;20457;-70
2021/10/10 04:27:58;;;;;;;4.50;3.55;;;12.80;1.00;;;;;;4976895;28;20077;-70
2021/10/10 04:30:24;;;;;;;5.53;3.38;;;12.80;1.00;;;;;;4959181;28;20070;-70
2021/10/10 04:32:52;;;;;;;5.90;3.90;;;12.80;1.00;;;;;;4977053;28;20070;-70
2021/10/10 04:35:18;;;;;;;4.80;4.15;;;12.90;1.00;;;;;;4959856;28;20043;-70
2021/10/10 04:37:44;;;;;;;4.47;3.28;;;12.90;1.00;;;;;;4976953;28;20089;-70
2021/10/10 04:40:16;;;;;;;5.20;3.92;;;12.90;1.00;;;;;;4976191;28;20046;-70
2021/10/10 04:42:42;;;;;;;5.22;4.00;;;12.90;1.00;;;;;;4976745;28;20085;-70
2021/10/10 04:45:09;;;;;;;5.90;3.45;;;12.90;1.00;;;;;;4975108;28;20059;-70
2021/10/10 04:47:38;;;;;;;5.90;3.90;;;12.90;1.00;;;;;;4976080;28;20375;-70
2021/10/10 04:50:05;;;;;;;4.32;3.30;;;12.90;1.00;;;;;;4975129;28;20130;-70
2021/10/10 04:52:35;;;;;;;4.03;3.25;;;12.90;1.00;;;;;;4958957;28;20034;-70
2021/10/10 04:55:03;;;;;;;4.72;3.30;;;12.80;1.00;;;;;;4976085;28;20506;-70
2021/10/10 04:57:32;;;;;;;5.63;3.80;;;12.80;1.00;;;;;;4976379;28;20126;-70
2021/10/10 04:59:58;;;;;;;5.28;3.90;;;12.70;1.00;;;;;;4976180;28;20537;-70
2021/10/10 05:02:23;;;;;;;3.90;3.53;;;12.70;1.00;;;;;;4975797;28;20258;-70
2021/10/10 05:04:54;;;;;;;5.28;4.20;;;12.70;1.00;;;;;;4976684;28;20430;-70
2021/10/10 05:07:20;;;;;;;3.97;3.28;;;12.80;1.00;;;;;;4976214;28;20042;-70
2021/10/10 05:09:49;;;;;;;5.53;4.07;;;12.70;1.00;;;;;;4976310;28;20382;-70
2021/10/10 05:12:15;;;;;;;4.63;3.72;;;12.70;1.00;;;;;;4976171;28;20046;-70
2021/10/10 05:14:42;;;;;;;5.05;3.90;;;12.70;1.00;;;;;;4976559;28;20077;-70
2021/10/10 05:17:08;;;;;;;4.32;3.70;;;12.70;1.00;;;;;;4942763;28;20050;-70
2021/10/10 05:19:34;;;;;;;4.72;3.70;;;12.70;1.00;;;;;;4976213;28;20081;-70
2021/10/10 05:22:01;;;;;;;4.78;4.22;;;12.60;1.00;;;;;;4975941;28;20050;-70
2021/10/10 05:24:27;;;;;;;5.25;3.90;;;12.60;1.00;;;;;;4975898;28;20049;-70
2021/10/10 05:26:53;;;;;;;5.13;3.88;;;12.50;1.00;;;;;;4974847;28;20038;-70
2021/10/10 05:29:18;;;;;;;5.28;4.05;;;12.50;1.00;;;;;;4959118;28;20050;-70
2021/10/10 05:31:44;;;;;;;5.53;4.13;;;12.50;1.00;;;;;;4974302;28;20039;-70
2021/10/10 05:34:11;;;;;;;4.82;3.95;;;12.50;1.00;;;;;;4975531;28;20046;-70
2021/10/10 05:36:37;;;;;;;5.43;3.85;;;12.40;1.00;;;;;;4958646;28;20047;-70
2021/10/10 05:39:03;;;;;;;4.85;3.90;;;12.40;1.00;;;;;;4976281;28;20501;-70
2021/10/10 05:41:29;;;;;;;5.25;4.05;;;12.30;1.00;;;;;;4958319;28;20390;-70
2021/10/10 05:43:55;;;;;;;6.68;5.35;;;12.30;1.00;;;;;;4954655;29;20055;-70
2021/10/10 05:46:21;;;;;;;7.22;4.30;;;12.30;1.00;;;;;;4956188;29;20035;-69
2021/10/10 05:48:47;;;;;;;5.65;4.35;;;12.30;1.00;;;;;;4956657;29;20058;-69
2021/10/10 05:51:12;;;;;;;5.28;4.25;;;12.20;1.00;;;;;;4956368;29;20395;-69
2021/10/10 05:53:39;;;;;;;5.72;4.43;;;12.20;1.00;;;;;;4956729;29;20039;-70
2021/10/10 05:56:05;;;;;;;5.55;4.50;;;12.10;1.00;;;;;;4939002;28;20049;-70
2021/10/10 05:58:38;;;;;;;6.57;4.93;;;12.10;1.00;;;;;;4958706;29;20038;-70
2021/10/10 06:01:04;;;;;;;6.30;4.60;;;12.10;1.00;;;;;;4959942;29;20062;-70
2021/10/10 06:03:29;;;;;;;4.78;4.20;;;12.00;1.00;;;;;;4959927;29;20395;-70
2021/10/10 06:05:55;;;;;;;6.63;4.07;;;12.00;1.00;;;;;;4960133;29;20114;-70
2021/10/10 06:08:21;;;;;;;6.05;4.32;;;12.00;1.00;;;;;;4960441;29;20478;-70
2021/10/10 06:10:47;;;;;;;5.70;4.13;;;11.90;1.00;;;;;;4959738;29;20074;-70
2021/10/10 06:13:13;;;;;;;10.73;6.32;;;11.90;1.00;;;;;;4959970;29;20031;-70
2021/10/10 06:15:40;;;;;;;7.80;5.57;;;11.90;1.00;;;;;;4959783;29;20031;-70
2021/10/10 06:18:08;;;;;;;5.88;4.70;;;11.90;1.00;;;;;;4958259;29;20071;-70
2021/10/10 06:20:36;;;;;;;11.30;8.40;;;11.90;1.00;;;;;;4959839;29;20058;-70
2021/10/10 06:23:02;;;;;;;11.23;6.35;;;11.90;1.00;;;;;;4958974;29;20051;-70
2021/10/10 06:25:28;;;;;;;9.68;6.40;;;12.00;1.00;;;;;;4959767;29;20035;-70
2021/10/10 06:27:53;;;;;;;12.57;7.38;;;12.00;1.00;;;;;;4960036;29;20039;-70
2021/10/10 06:30:19;;;;;;;9.38;7.18;;;12.10;1.00;;;;;;4959715;29;20043;-70
2021/10/10 06:32:45;;;;;;;8.20;6.53;;;12.10;1.00;;;;;;4959505;29;20036;-70
2021/10/10 06:35:11;;;;;;;10.32;7.50;;;12.20;1.00;;;;;;4959579;29;20047;-70
2021/10/10 06:37:37;;;;;;;10.82;7.75;;;12.30;1.00;;;;;;4958302;29;20038;-70
2021/10/10 06:40:03;;;;;;;11.15;8.10;;;12.30;1.00;;;;;;4942212;29;20046;-70
2021/10/10 06:42:30;;;;;;;10.52;7.57;;;12.30;1.00;;;;;;4959195;29;20045;-70
2021/10/10 06:44:56;;;;;;;9.45;7.07;;;12.40;1.00;;;;;;4959320;28;20533;-69
2021/10/10 06:47:27;;;;;;;9.55;7.50;;;12.40;1.00;;;;;;4967934;28;20051;-70
2021/10/10 06:49:53;;;;;;;7.20;6.50;;;12.50;1.00;;;;;;4966314;28;20041;-70
2021/10/10 06:52:21;;;;;;;8.65;6.47;;;12.40;1.00;;;;;;4967901;28;20047;-69
2021/10/10 06:54:46;;;;;;;8.40;6.18;;;12.50;1.00;;;;;;4962477;28;20031;-70
2021/10/10 06:57:12;;;;;;;10.52;6.45;;;12.60;1.00;;;;;;4967424;28;20122;-70
2021/10/10 06:59:38;;;;;;;8.73;6.55;;;12.50;1.00;;;;;;4950381;28;20047;-70
2021/10/10 07:02:04;;;;;;;10.98;6.93;;;12.60;1.00;;;;;;4971809;28;20042;-70
2021/10/10 07:04:30;;;;;;;11.52;7.03;;;12.60;1.00;;;;;;4978452;28;20030;-70
2021/10/10 07:06:55;;;;;;;9.45;6.85;;;12.50;1.00;;;;;;4978200;28;20054;-69
2021/10/10 07:09:21;;;;;;;9.05;7.20;;;12.50;1.00;;;;;;4977480;28;20454;-70
2021/10/10 07:11:47;;;;;;;6.53;5.80;;;12.50;1.00;;;;;;4975253;28;20054;-70
2021/10/10 07:14:13;;;;;;;6.47;5.78;;;12.50;1.00;;;;;;4950307;28;20407;-70
2021/10/10 07:16:42;;;;;;;8.00;6.60;;;12.60;1.00;;;;;;4966017;28;20130;-70
2021/10/10 07:19:08;;;;;;;7.38;6.55;;;12.70;1.00;;;;;;4967470;28;20038;-70
2021/10/10 07:27:05;;;;;;;7.32;5.90;;;12.70;1.00;;;;;;4966969;28;20047;-70
2021/10/10 07:29:31;;;;;;;6.35;5.30;;;12.70;1.00;;;;;;4966194;28;20031;-69
2021/10/10 07:31:57;;;;;;;6.43;5.07;;;12.80;1.00;;;;;;4948416;28;20494;-70
2021/10/10 07:34:23;;;;;;;8.52;6.95;;;12.90;1.00;;;;;;4965721;28;20079;-69
2021/10/10 07:36:49;;;;;;;6.65;4.85;;;12.90;1.00;;;;;;4970097;28;20496;-70
2021/10/10 07:39:15;;;;;;;7.82;6.32;;;12.90;1.00;;;;;;4976980;28;20490;-70
2021/10/10 07:41:41;;;;;;;5.55;4.97;;;12.90;1.00;;;;;;4977472;28;20046;-69
2021/10/10 07:44:12;;;;;;;7.05;4.63;;;13.00;1.00;;;;;;4956241;28;20057;-69
2021/10/10 07:46:42;;;;;;;6.50;4.72;;;13.10;1.00;;;;;;4977211;28;20070;-69
2021/10/10 07:49:09;;;;;;;5.00;4.45;;;13.30;1.00;;;;;;4977249;28;20125;-69
2021/10/10 07:51:36;;;;;;;5.32;4.53;;;13.40;1.00;;;;;;4977456;28;20043;-69
2021/10/10 07:54:02;;;;;;;5.85;4.30;;;13.40;1.00;;;;;;4965886;28;20502;-69
2021/10/10 07:56:28;;;;;;;5.55;4.40;;;13.50;1.00;;;;;;4961342;28;20035;-69
2021/10/10 07:58:54;;;;;;;6.85;4.10;;;13.60;1.00;;;;;;4963909;28;20049;-69
2021/10/10 08:01:20;;;;;;;4.28;3.88;;;13.70;1.00;;;;;;4933743;28;20113;-69
2021/10/10 08:03:47;;;;;;;6.20;3.67;;;13.90;1.00;;;;;;4954635;28;20120;-71
2021/10/10 08:06:16;;;;;;;5.68;4.38;;;14.10;1.00;;;;;;4954834;29;20046;-69
2021/10/10 08:08:44;;;;;;;7.03;4.15;;;14.30;1.00;;;;;;4954779;28;20043;-72
2021/10/10 08:17:47;;;;;;;4.70;3.13;;;14.90;1.00;;;;;;4914381;29;20052;-72
2021/10/10 08:21:03;;;;;;;6.22;3.90;;;15.10;1.00;;;;;;4901668;29;20123;-72
2021/10/10 08:24:02;;;;;;;3.55;3.10;;;15.30;1.00;;;;;;4906763;29;20062;-72
2021/10/10 08:33:23;;;;;;;;;;;;;;;;;;;;;
2021/10/10 08:35:50;;;;;;;3.00;2.70;;;16.10;1.00;;;;;;4934604;29;20507;-73
2021/10/10 08:39:22;;;;;;;2.65;2.20;;;16.20;1.00;;;;;;4955205;28;20071;-72
2021/10/10 08:42:08;;;;;;;2.55;2.35;;;16.30;1.00;;;;;;4946190;28;20078;-73
2021/10/10 08:45:45;;;;;;;7.85;4.78;;;16.40;1.00;;;;;;4957144;28;20085;-73
2021/10/10 08:48:04;;;;;;;5.18;3.03;;;16.40;1.00;;;;;;4950197;29;20107;-73
2021/10/10 08:50:30;;;;;;;6.75;4.45;;;16.20;1.00;;;;;;4955961;29;20178;-79
2021/10/10 08:53:00;;;;;;;6.63;4.15;;;16.10;1.00;;;;;;4938783;29;20057;-82
2021/10/10 08:55:33;;;;;;;3.38;3.00;;;16.00;1.00;;;;;;4955483;29;20047;-81
2021/10/10 08:58:03;;;;;;;3.03;2.83;;;15.80;1.00;;;;;;4949483;29;20118;-82
2021/10/10 09:00:32;;;;;;;6.07;2.88;;;15.70;1.00;;;;;;4939800;29;20070;-81
2021/10/10 09:03:01;;;;;;;3.00;2.72;;;15.60;1.00;;;;;;4936344;29;20415;-83
2021/10/10 09:05:27;;;;;;;4.07;2.70;;;15.40;1.00;;;;;;4918859;29;20039;-82
2021/10/10 09:07:54;;;;;;;4.35;3.33;;;15.30;1.00;;;;;;4948680;28;20126;-82
2021/10/10 09:17:03;;;;;;;5.15;2.85;;;15.30;1.00;;;;;;4945518;29;20581;-77
2021/10/10 10:07:35;;;;;;;;;;;;;;;;;;;;;
2021/10/10 10:53:50;;;;;;;;;;;;;;;;;;;;;
2021/10/10 10:57:09;;;;;;;4.65;3.40;;;17.40;1.00;;;;;;4818242;29;20507;-77
2021/10/10 11:03:19;;;;;;;4.28;3.28;;;17.60;1.00;;;;;;4795851;29;20037;-77
2021/10/10 11:13:43;;;;;;;;;;;;;;;;;;;;;
2021/10/10 11:17:26;;;;;;;;;;;;;;;;;;;;;
2021/10/10 11:20:07;;;;;;;5.20;3.13;;;17.20;1.00;;;;;;4765789;30;20443;-76
2021/10/10 12:11:54;;;;;;;3.70;2.88;;;16.50;1.00;;;;;;4824610;29;20049;-76
2021/10/10 12:14:52;;;;;;;4.43;3.67;;;16.40;1.00;;;;;;4807974;29;20446;-76
2021/10/10 12:21:17;;;;;;;4.65;3.10;;;16.40;1.00;;;;;;4843598;29;20058;-77
2021/10/10 12:23:49;;;;;;;3.92;3.40;;;16.40;1.00;;;;;;4832730;29;20044;-73
2021/10/10 12:27:02;;;;;;;3.50;3.17;;;16.40;1.00;;;;;;4843959;29;20178;-82
2021/10/10 12:29:29;;;;;;;4.05;3.60;;;16.50;1.00;;;;;;4855567;29;20060;-77
2021/10/10 12:32:20;;;;;;;3.50;3.20;;;16.50;1.00;;;;;;4849941;29;20380;-79
2021/10/10 12:34:49;;;;;;;4.63;3.28;;;16.50;1.00;;;;;;4842070;29;20049;-78
2021/10/10 12:37:20;;;;;;;3.20;2.90;;;16.50;1.00;;;;;;4844340;29;20052;-78
2021/10/10 12:39:48;;;;;;;4.10;3.22;;;16.40;1.00;;;;;;4842666;29;20045;-78
2021/10/10 12:42:17;;;;;;;14.60;9.35;;;16.30;1.00;;;;;;4843892;29;20030;-78
2021/10/10 12:45:07;;;;;;;4.75;3.42;;;16.30;1.00;;;;;;4843940;29;20129;-78
2021/10/10 12:47:33;;;;;;;3.30;2.92;;;16.40;1.00;;;;;;4841568;29;20454;-78
2021/10/10 12:49:59;;;;;;;3.90;3.10;;;16.40;1.00;;;;;;4842754;29;20076;-78
2021/10/10 12:52:39;;;;;;;3.42;3.13;;;16.40;1.00;;;;;;4842767;29;20182;-78
2021/10/10 12:55:06;;;;;;;5.68;3.25;;;16.50;1.00;;;;;;4827179;29;20049;-78
2021/10/10 12:57:38;;;;;;;5.50;3.13;;;16.70;1.00;;;;;;4842326;29;20038;-78
2021/10/10 13:00:07;;;;;;;4.03;3.25;;;16.70;1.00;;;;;;4827373;29;20049;-78
2021/10/10 13:02:33;;;;;;;3.17;2.85;;;16.80;1.00;;;;;;4843842;29;20061;-78
2021/10/10 13:04:59;;;;;;;3.50;3.13;;;16.80;1.00;;;;;;4843060;29;20038;-78
2021/10/10 13:07:25;;;;;;;3.92;3.05;;;16.70;1.00;;;;;;4843854;29;20175;-78
2021/10/10 13:09:52;;;;;;;4.22;2.95;;;16.60;1.00;;;;;;4844203;29;20077;-78
2021/10/10 13:12:18;;;;;;;5.38;3.20;;;16.50;1.00;;;;;;4844159;29;20094;-78
2021/10/10 13:14:44;;;;;;;3.42;3.13;;;16.40;1.00;;;;;;4844213;29;20085;-78
2021/10/10 13:17:10;;;;;;;3.60;2.95;;;16.50;1.00;;;;;;4843917;29;20061;-78
2021/10/10 13:19:36;;;;;;;3.72;2.90;;;16.40;1.00;;;;;;4843789;29;20061;-78
2021/10/10 13:22:02;;;;;;;4.20;3.08;;;16.40;1.00;;;;;;4844083;29;20401;-78
2021/10/10 13:24:28;;;;;;;4.60;3.80;;;16.40;1.00;;;;;;4843941;29;20042;-78
2021/10/10 13:26:54;;;;;;;3.97;3.20;;;16.50;1.00;;;;;;4843976;29;20475;-78
2021/10/10 13:29:20;;;;;;;11.20;8.18;;;16.50;1.00;;;;;;4844512;29;20125;-78
2021/10/10 13:31:48;;;;;;;5.15;4.15;;;16.50;1.00;;;;;;4827422;29;20109;-78
2021/10/10 13:34:14;;;;;;;4.78;4.28;;;16.60;1.00;;;;;;4843891;29;20105;-78
2021/10/10 13:36:40;;;;;;;6.03;3.50;;;16.80;1.00;;;;;;4844105;29;20130;-77
2021/10/10 13:39:06;;;;;;;3.92;3.35;;;16.80;1.00;;;;;;4844080;29;20500;-78
2021/10/10 13:41:36;;;;;;;4.72;3.50;;;16.80;1.00;;;;;;4827469;29;20045;-78
2021/10/10 13:44:06;;;;;;;4.95;3.90;;;16.60;1.00;;;;;;4844319;29;20038;-78
2021/10/10 13:46:33;;;;;;;5.18;2.97;;;16.50;1.00;;;;;;4843710;29;20072;-78
2021/10/10 13:48:59;;;;;;;3.95;3.22;;;16.40;1.00;;;;;;4843913;29;20046;-78
2021/10/10 13:51:25;;;;;;;3.25;2.95;;;16.40;1.00;;;;;;4843733;29;20136;-77
2021/10/10 13:53:51;;;;;;;4.15;3.33;;;16.50;1.00;;;;;;4843675;29;20525;-78
2021/10/10 13:56:17;;;;;;;4.15;3.00;;;16.40;1.00;;;;;;4844256;29;20058;-78
2021/10/10 13:58:43;;;;;;;4.45;3.03;;;16.70;1.00;;;;;;4843855;29;20419;-78
2021/10/10 14:01:09;;;;;;;4.70;4.22;;;16.80;1.00;;;;;;4843423;29;20521;-78
2021/10/10 14:03:38;;;;;;;4.55;3.58;;;16.80;1.00;;;;;;4843185;29;20422;-78
2021/10/10 14:06:04;;;;;;;6.15;4.45;;;16.80;1.00;;;;;;4843285;29;20066;-78
2021/10/10 14:08:30;;;;;;;4.43;4.03;;;16.90;1.00;;;;;;4841797;29;20049;-77
2021/10/10 14:10:56;;;;;;;4.43;3.70;;;16.80;1.00;;;;;;4828013;29;20045;-78
2021/10/10 14:13:22;;;;;;;5.05;3.58;;;16.80;1.00;;;;;;4843205;29;20050;-78
2021/10/10 14:15:52;;;;;;;4.00;3.60;;;16.80;1.00;;;;;;4842888;29;20077;-78
2021/10/10 14:18:19;;;;;;;4.50;4.00;;;16.70;1.00;;;;;;4828269;29;20045;-78
2021/10/10 14:20:46;;;;;;;5.82;3.33;;;16.60;1.00;;;;;;4846410;29;20042;-77
2021/10/10 14:23:13;;;;;;;5.65;3.70;;;16.60;1.00;;;;;;4845560;29;20042;-78
2021/10/10 14:25:40;;;;;;;4.57;3.22;;;16.50;1.00;;;;;;4847056;29;20137;-78
2021/10/10 14:28:07;;;;;;;4.05;3.70;;;16.40;1.00;;;;;;4844626;29;20098;-78
2021/10/10 14:30:34;;;;;;;4.90;3.88;;;16.40;1.00;;;;;;4843623;29;20049;-78
2021/10/10 14:33:00;;;;;;;4.82;3.40;;;16.40;1.00;;;;;;4844124;29;20621;-77
2021/10/10 14:35:26;;;;;;;3.55;3.25;;;16.30;1.00;;;;;;4845940;29;20065;-78
2021/10/10 14:37:52;;;;;;;4.97;4.40;;;16.30;1.00;;;;;;4845060;29;20046;-78
2021/10/10 14:40:19;;;;;;;4.85;3.67;;;16.30;1.00;;;;;;4846440;29;20484;-77
2021/10/10 14:42:52;;;;;;;5.03;4.00;;;16.30;1.00;;;;;;4846509;29;20102;-77
2021/10/10 14:45:21;;;;;;;6.43;3.70;;;16.30;1.00;;;;;;4846621;29;20041;-77
2021/10/10 14:50:32;;;;;;;4.50;3.80;;;16.30;1.00;;;;;;4846606;29;20125;-78
2021/10/10 14:52:57;;;;;;;5.57;3.80;;;16.30;1.00;;;;;;4846586;29;20526;-78
2021/10/10 14:55:24;;;;;;;4.88;4.30;;;16.30;1.00;;;;;;4846267;29;20069;-78
2021/10/10 14:57:53;;;;;;;3.90;3.40;;;16.30;1.00;;;;;;4846789;29;20074;-77
2021/10/10 15:00:20;;;;;;;4.68;3.95;;;16.30;1.00;;;;;;4846073;29;20048;-78
2021/10/10 15:02:46;;;;;;;3.88;3.45;;;16.30;1.00;;;;;;4845732;29;20125;-79
2021/10/10 15:05:13;;;;;;;5.15;3.83;;;16.30;1.00;;;;;;4844012;29;20132;-78
2021/10/10 15:07:40;;;;;;;3.90;3.50;;;16.30;1.00;;;;;;4854101;29;20038;-77
2021/10/10 15:10:08;;;;;;;4.20;3.35;;;16.20;1.00;;;;;;4864297;29;20046;-79
2021/10/10 15:12:39;;;;;;;5.05;3.83;;;16.30;1.00;;;;;;4852818;29;20045;-75
2021/10/10 15:15:27;;;;;;;;;;;;;;;;;;;;;
2021/10/10 15:18:20;;;;;;;3.80;3.45;;;16.30;1.00;;;;;;4845137;29;20041;-76
2021/10/10 15:20:46;;;;;;;4.43;3.60;;;16.20;1.00;;;;;;4850062;29;20052;-75
2021/10/10 15:23:12;;;;;;;4.82;4.32;;;16.10;1.00;;;;;;4858855;29;20033;-75
2021/10/10 15:25:42;;;;;;;4.20;3.80;;;16.10;1.00;;;;;;4864431;29;20072;-75
2021/10/10 15:28:08;;;;;;;7.75;3.90;;;16.10;1.00;;;;;;4864758;29;20094;-76
2021/10/10 15:30:34;;;;;;;4.10;3.75;;;16.10;1.00;;;;;;4863145;29;20049;-75
2021/10/10 15:33:06;;;;;;;3.78;3.35;;;16.00;1.00;;;;;;4864327;29;20060;-76
2021/10/10 15:35:32;;;;;;;5.25;4.15;;;16.10;1.00;;;;;;4864577;29;20557;-74
2021/10/10 15:37:59;;;;;;;4.72;4.07;;;16.10;1.00;;;;;;4864806;29;20072;-75
2021/10/10 15:40:24;;;;;;;5.72;4.38;;;16.00;1.00;;;;;;4855981;29;20078;-75
2021/10/10 15:42:50;;;;;;;4.88;4.40;;;16.00;1.00;;;;;;4845368;29;20077;-75
2021/10/10 15:45:16;;;;;;;3.97;3.60;;;15.90;1.00;;;;;;4845602;29;20069;-74
2021/10/10 15:47:42;;;;;;;4.22;3.83;;;15.90;1.00;;;;;;4845697;29;20038;-74
2021/10/10 15:50:08;;;;;;;5.10;4.60;;;15.90;1.00;;;;;;4845473;29;20141;-71
2021/10/10 15:52:34;;;;;;;4.50;4.07;;;15.90;1.00;;;;;;4845500;29;20057;-71
2021/10/10 15:55:00;;;;;;;7.03;4.60;;;15.80;1.00;;;;;;4845163;29;20050;-72
2021/10/10 15:57:26;;;;;;;6.53;4.57;;;15.80;1.00;;;;;;4844002;29;20109;-70
2021/10/10 15:59:52;;;;;;;6.22;4.40;;;15.70;1.00;;;;;;4844128;29;20397;-74
2021/10/10 16:02:18;;;;;;;5.75;4.80;;;15.70;1.00;;;;;;4844424;29;20054;-70
2021/10/10 16:04:44;;;;;;;5.80;5.20;;;15.60;1.00;;;;;;4845291;29;20057;-69
2021/10/10 16:07:13;;;;;;;5.18;3.90;;;15.60;1.00;;;;;;4845243;29;20046;-71
2021/10/10 16:09:38;;;;;;;6.95;4.15;;;15.60;1.00;;;;;;4845647;29;20041;-74
2021/10/10 16:12:15;;;;;;;4.70;4.25;;;15.50;1.00;;;;;;4843865;29;20506;-74
2021/10/10 16:14:54;;;;;;;5.47;4.97;;;15.40;1.00;;;;;;4845203;29;20042;-74